createdAt,value
2019-01-14T00:00:45.210Z,25.36
2019-01-14T00:03:31.686Z,25.30
2019-01-14T00:06:14.618Z,25.19
2019-01-14T00:11:07.216Z,25.00
2019-01-14T00:13:32.406Z,24.96
2019-01-14T00:16:23.285Z,24.89
2019-01-14T00:19:03.981Z,24.86
2019-01-14T00:21:20.201Z,24.86
2019-01-14T00:23:44.369Z,24.76
2019-01-14T00:25:53.741Z,24.65
2019-01-14T00:28:31.878Z,24.70
2019-01-14T00:30:57.379Z,24.62
2019-01-14T00:33:38.585Z,24.66
2019-01-14T00:35:56.954Z,24.62
2019-01-14T00:38:22.393Z,24.62
2019-01-14T00:40:42.712Z,24.59
2019-01-14T00:43:18.419Z,24.58
2019-01-14T00:45:36.871Z,24.50
2019-01-14T00:48:15.492Z,24.58
2019-01-14T00:50:51.470Z,24.51
2019-01-14T00:53:15.572Z,24.64
2019-01-14T00:58:18.001Z,24.62
2019-01-14T01:00:55.717Z,24.45
2019-01-14T01:03:11.147Z,24.52
2019-01-14T01:06:02.229Z,24.40
2019-01-14T01:08:30.853Z,24.34
2019-01-14T01:11:02.434Z,24.20
2019-01-14T01:13:18.217Z,24.19
2019-01-14T01:15:35.415Z,24.24
2019-01-14T01:18:03.737Z,24.23
2019-01-14T01:20:45.542Z,24.13
2019-01-14T01:23:12.115Z,24.13
2019-01-14T01:25:46.084Z,24.26
2019-01-14T01:28:36.107Z,24.33
2019-01-14T01:30:51.168Z,24.29
2019-01-14T01:33:11.518Z,24.19
2019-01-14T01:35:31.909Z,24.10
2019-01-14T01:37:51.475Z,24.03
2019-01-14T01:40:16.723Z,24.00
2019-01-14T01:42:25.590Z,23.98
2019-01-14T01:45:07.553Z,23.96
2019-01-14T01:48:06.295Z,24.07
2019-01-14T01:50:30.506Z,24.09
2019-01-14T01:52:49.957Z,24.04
2019-01-14T01:55:02.240Z,23.88
2019-01-14T01:57:10.793Z,23.83
2019-01-14T01:59:46.300Z,23.89
2019-01-14T02:01:59.849Z,23.71
2019-01-14T02:04:22.853Z,23.70
2019-01-14T02:06:42.202Z,23.80
2019-01-14T02:09:12.055Z,23.79
2019-01-14T02:11:40.754Z,23.68
2019-01-14T02:13:50.459Z,23.65
2019-01-14T02:16:00.964Z,23.58
2019-01-14T02:18:32.658Z,23.55
2019-01-14T02:20:45.926Z,23.57
2019-01-14T02:23:05.880Z,23.54
2019-01-14T02:25:34.767Z,23.53
2019-01-14T02:33:27.929Z,23.42
2019-01-14T02:37:04.121Z,23.41
2019-01-14T02:38:05.811Z,23.35
2019-01-14T02:43:06.054Z,23.35
2019-01-14T02:45:29.198Z,23.34
2019-01-14T02:47:38.538Z,23.30
2019-01-14T02:49:58.480Z,23.28
2019-01-14T02:52:29.244Z,23.35
2019-01-14T02:54:52.213Z,23.28
2019-01-14T02:57:01.027Z,23.15
2019-01-14T02:59:27.551Z,23.08
2019-01-14T03:04:39.801Z,23.09
2019-01-14T03:06:53.526Z,23.09
2019-01-14T03:09:19.200Z,22.85
2019-01-14T03:11:43.759Z,23.09
2019-01-14T03:14:12.628Z,23.05
2019-01-14T03:16:32.321Z,23.00
2019-01-14T03:19:05.612Z,22.94
2019-01-14T03:21:29.626Z,22.91
2019-01-14T03:23:48.324Z,22.91
2019-01-14T03:26:08.671Z,22.88
2019-01-14T03:28:57.291Z,22.86
2019-01-14T03:31:21.089Z,22.84
2019-01-14T03:33:42.568Z,22.78
2019-01-14T03:36:19.286Z,22.74
2019-01-14T03:38:45.702Z,22.68
2019-01-14T03:41:02.799Z,22.68
2019-01-14T03:43:19.472Z,22.67
2019-01-14T03:47:57.635Z,22.64
2019-01-14T03:50:22.128Z,22.60
2019-01-14T03:52:39.265Z,22.53
2019-01-14T03:55:10.718Z,22.49
2019-01-14T03:57:19.438Z,22.55
2019-01-14T04:02:27.176Z,22.92
2019-01-14T04:05:04.710Z,23.12
2019-01-14T04:07:13.884Z,23.32
2019-01-14T04:09:43.316Z,23.52
2019-01-14T04:12:02.881Z,23.63
2019-01-14T04:14:34.330Z,23.69
2019-01-14T04:16:42.722Z,23.58
2019-01-14T04:19:13.259Z,23.42
2019-01-14T04:21:39.594Z,23.30
2019-01-14T04:23:37.969Z,23.18
2019-01-14T04:25:57.792Z,23.12
2019-01-14T04:28:20.304Z,23.00
2019-01-14T04:30:37.326Z,22.98
2019-01-14T04:32:51.796Z,22.86
2019-01-14T04:35:03.610Z,22.80
2019-01-14T04:37:31.097Z,22.70
2019-01-14T04:40:02.500Z,22.69
2019-01-14T04:42:30.725Z,22.63
2019-01-14T04:47:13.628Z,22.55
2019-01-14T04:49:37.444Z,22.49
2019-01-14T04:51:59.093Z,22.55
2019-01-14T04:54:26.987Z,22.72
2019-01-14T04:56:35.118Z,22.89
2019-01-14T04:58:42.456Z,23.07
2019-01-14T05:00:50.964Z,23.25
2019-01-14T05:04:00.635Z,23.40
2019-01-14T05:06:16.489Z,23.55
2019-01-14T05:08:30.715Z,23.67
2019-01-14T05:10:44.442Z,23.78
2019-01-14T05:13:11.839Z,23.79
2019-01-14T05:19:14.272Z,23.56
2019-01-14T05:24:15.071Z,23.15
2019-01-14T05:26:34.230Z,23.05
2019-01-14T05:28:48.577Z,22.95
2019-01-14T05:31:04.168Z,22.87
2019-01-14T05:33:48.078Z,22.86
2019-01-14T05:36:07.008Z,22.82
2019-01-14T05:41:28.027Z,22.77
2019-01-14T05:43:53.969Z,22.59
2019-01-14T05:46:10.749Z,22.64
2019-01-14T05:48:23.546Z,22.62
2019-01-14T05:50:30.762Z,22.62
2019-01-14T05:52:39.080Z,22.62
2019-01-14T05:54:47.058Z,22.55
2019-01-14T05:57:50.938Z,22.63
2019-01-14T06:00:12.932Z,22.62
2019-01-14T06:02:49.158Z,22.81
2019-01-14T06:04:59.455Z,22.88
2019-01-14T06:07:07.124Z,23.11
2019-01-14T06:09:15.321Z,23.28
2019-01-14T06:11:23.416Z,23.41
2019-01-14T06:13:30.623Z,23.48
2019-01-14T06:15:38.589Z,23.59
2019-01-14T06:17:46.494Z,23.67
2019-01-14T06:19:54.168Z,23.70
2019-01-14T06:22:01.562Z,23.69
2019-01-14T06:24:09.781Z,23.63
2019-01-14T06:26:17.816Z,23.53
2019-01-14T06:28:25.004Z,23.44
2019-01-14T06:30:32.787Z,23.31
2019-01-14T06:32:40.740Z,23.18
2019-01-14T06:34:48.508Z,23.12
2019-01-14T06:36:55.660Z,23.06
2019-01-14T06:39:02.991Z,23.01
2019-01-14T06:41:11.711Z,22.90
2019-01-14T06:43:19.226Z,22.96
2019-01-14T06:45:26.662Z,22.87
2019-01-14T06:47:33.791Z,22.81
2019-01-14T06:49:41.110Z,22.79
2019-01-14T06:51:48.533Z,22.70
2019-01-14T06:53:56.398Z,22.67
2019-01-14T06:56:03.779Z,22.64
2019-01-14T06:58:12.396Z,22.72
2019-01-14T07:00:29.933Z,22.81
2019-01-14T07:02:38.473Z,22.96
2019-01-14T07:04:46.240Z,23.04
2019-01-14T07:06:53.497Z,23.13
2019-01-14T07:09:01.013Z,23.22
2019-01-14T07:11:09.864Z,23.29
2019-01-14T07:13:20.345Z,23.35
2019-01-14T07:15:27.773Z,23.40
2019-01-14T07:17:34.963Z,23.32
2019-01-14T07:22:07.173Z,23.20
2019-01-14T07:24:15.865Z,23.11
2019-01-14T07:26:22.981Z,23.04
2019-01-14T07:28:30.276Z,22.99
2019-01-14T07:30:37.632Z,22.91
2019-01-14T07:32:44.920Z,22.86
2019-01-14T07:34:52.260Z,22.80
2019-01-14T07:36:59.806Z,22.76
2019-01-14T07:39:09.469Z,22.68
2019-01-14T07:41:16.839Z,22.65
2019-01-14T07:43:24.167Z,22.60
2019-01-14T07:45:32.417Z,22.54
2019-01-14T07:47:40.205Z,22.49
2019-01-14T07:49:47.612Z,22.46
2019-01-14T07:51:54.796Z,22.44
2019-01-14T07:54:02.157Z,22.41
2019-01-14T07:56:11.252Z,22.45
2019-01-14T07:58:19.483Z,22.58
2019-01-14T08:00:28.292Z,22.72
2019-01-14T08:02:35.693Z,22.85
2019-01-14T08:04:43.151Z,22.99
2019-01-14T08:06:50.339Z,23.10
2019-01-14T08:08:57.539Z,23.19
2019-01-14T08:11:04.830Z,23.23
2019-01-14T08:13:12.258Z,23.37
2019-01-14T08:15:24.732Z,23.38
2019-01-14T08:17:32.129Z,23.34
2019-01-14T08:19:39.636Z,23.25
2019-01-14T08:21:47.557Z,23.16
2019-01-14T08:23:55.052Z,23.07
2019-01-14T08:26:02.478Z,22.97
2019-01-14T08:28:09.668Z,22.94
2019-01-14T08:30:22.210Z,22.84
2019-01-14T08:32:37.365Z,22.77
2019-01-14T08:34:54.382Z,22.69
2019-01-14T08:37:01.673Z,22.59
2019-01-14T08:39:11.429Z,22.51
2019-01-14T08:41:33.804Z,22.56
2019-01-14T08:44:00.458Z,22.70
2019-01-14T08:46:11.063Z,22.81
2019-01-14T08:48:19.306Z,22.96
2019-01-14T08:50:36.217Z,23.04
2019-01-14T08:52:43.733Z,23.16
2019-01-14T08:55:04.344Z,23.29
2019-01-14T08:57:13.069Z,23.28
2019-01-14T08:59:29.415Z,23.25
2019-01-14T09:02:16.007Z,23.12
2019-01-14T09:04:22.126Z,23.06
2019-01-14T09:06:30.722Z,22.96
2019-01-14T09:08:49.563Z,22.85
2019-01-14T09:11:01.305Z,22.74
2019-01-14T09:13:12.481Z,22.69
2019-01-14T09:15:25.866Z,22.64
2019-01-14T09:17:45.018Z,22.60
2019-01-14T09:20:07.375Z,22.58
2019-01-14T09:22:20.586Z,22.62
2019-01-14T09:24:39.606Z,22.78
2019-01-14T09:26:45.593Z,22.89
2019-01-14T09:29:08.117Z,23.03
2019-01-14T09:31:19.772Z,23.18
2019-01-14T09:33:32.284Z,23.30
2019-01-14T09:35:43.823Z,23.31
2019-01-14T09:37:58.783Z,23.26
2019-01-14T09:40:08.515Z,23.18
2019-01-14T09:42:15.695Z,23.11
2019-01-14T09:44:23.061Z,23.01
2019-01-14T09:46:30.304Z,22.94
2019-01-14T09:48:37.693Z,22.87
2019-01-14T09:50:44.987Z,22.79
2019-01-14T09:52:52.195Z,22.71
2019-01-14T09:55:09.871Z,22.65
2019-01-14T09:57:21.052Z,22.57
2019-01-14T09:59:31.995Z,22.52
2019-01-14T10:01:39.399Z,22.48
2019-01-14T10:03:46.880Z,22.42
2019-01-14T10:05:54.762Z,22.37
2019-01-14T10:08:02.200Z,22.33
2019-01-14T10:10:12.111Z,22.27
2019-01-14T10:12:19.086Z,22.27
2019-01-14T10:14:45.736Z,22.26
2019-01-14T10:16:53.546Z,22.36
2019-01-14T10:19:01.324Z,22.52
2019-01-14T10:21:08.673Z,22.58
2019-01-14T10:23:16.586Z,22.78
2019-01-14T10:25:33.267Z,22.88
2019-01-14T10:27:51.580Z,23.04
2019-01-14T10:30:07.098Z,23.16
2019-01-14T10:32:14.916Z,23.21
2019-01-14T10:34:33.521Z,23.27
2019-01-14T10:36:40.875Z,23.35
2019-01-14T10:38:57.566Z,23.43
2019-01-14T10:41:12.193Z,23.51
2019-01-14T10:43:28.446Z,23.57
2019-01-14T10:45:43.535Z,23.65
2019-01-14T10:47:53.611Z,23.66
2019-01-14T10:50:13.225Z,23.70
2019-01-14T10:52:35.321Z,23.68
2019-01-14T10:54:51.970Z,23.59
2019-01-14T10:57:00.085Z,23.43
2019-01-14T10:59:08.062Z,23.36
2019-01-14T11:01:15.601Z,23.31
2019-01-14T11:03:23.034Z,23.21
2019-01-14T11:05:32.075Z,23.12
2019-01-14T11:07:39.419Z,23.03
2019-01-14T11:09:46.986Z,22.95
2019-01-14T11:11:54.397Z,22.90
2019-01-14T11:14:02.603Z,22.83
2019-01-14T11:16:10.183Z,22.78
2019-01-14T11:18:17.855Z,22.69
2019-01-14T11:20:30.329Z,22.65
2019-01-14T11:22:44.329Z,22.61
2019-01-14T11:25:07.362Z,22.55
2019-01-14T11:27:20.971Z,22.51
2019-01-14T11:29:54.581Z,22.49
2019-01-14T11:32:08.413Z,22.45
2019-01-14T11:34:25.733Z,22.42
2019-01-14T11:36:35.889Z,22.40
2019-01-14T11:39:05.212Z,22.38
2019-01-14T11:41:18.142Z,22.36
2019-01-14T11:43:33.680Z,22.34
2019-01-14T11:45:47.811Z,22.29
2019-01-14T11:47:56.407Z,22.24
2019-01-14T11:50:12.478Z,22.18
2019-01-14T11:52:29.611Z,22.25
2019-01-14T11:54:45.207Z,22.41
2019-01-14T11:56:52.705Z,22.50
2019-01-14T11:59:12.494Z,22.69
2019-01-14T12:01:30.128Z,22.80
2019-01-14T12:03:40.989Z,22.93
2019-01-14T12:05:53.666Z,23.07
2019-01-14T12:08:04.558Z,23.21
2019-01-14T12:10:22.585Z,23.32
2019-01-14T12:12:38.277Z,23.44
2019-01-14T12:14:50.564Z,23.56
2019-01-14T12:16:57.511Z,23.69
2019-01-14T12:19:10.490Z,23.76
2019-01-14T12:21:20.812Z,23.68
2019-01-14T12:23:33.304Z,23.57
2019-01-14T12:25:47.134Z,23.45
2019-01-14T12:28:07.454Z,23.36
2019-01-14T12:30:36.016Z,23.27
2019-01-14T12:33:05.153Z,23.14
2019-01-14T12:35:16.631Z,23.09
2019-01-14T12:37:24.266Z,23.11
2019-01-14T12:39:38.921Z,23.24
2019-01-14T12:41:52.513Z,23.37
2019-01-14T12:44:08.440Z,23.40
2019-01-14T12:46:23.808Z,23.53
2019-01-14T12:48:32.035Z,23.61
2019-01-14T12:50:39.954Z,23.72
2019-01-14T12:52:47.265Z,23.78
2019-01-14T12:54:54.647Z,23.87
2019-01-14T12:57:02.469Z,23.92
2019-01-14T12:59:09.784Z,24.00
2019-01-14T13:01:17.137Z,24.02
2019-01-14T13:03:24.565Z,24.09
2019-01-14T13:05:32.473Z,24.22
2019-01-14T13:07:39.805Z,24.30
2019-01-14T13:09:47.503Z,24.37
2019-01-14T13:11:54.826Z,24.45
2019-01-14T13:14:02.324Z,24.52
2019-01-14T13:16:10.501Z,24.62
2019-01-14T13:18:17.924Z,24.67
2019-01-14T13:20:25.668Z,24.74
2019-01-14T13:22:45.066Z,24.83
2019-01-14T13:24:52.560Z,24.90
2019-01-14T13:27:00.324Z,24.92
2019-01-14T13:29:07.437Z,24.93
2019-01-14T13:31:15.777Z,24.93
2019-01-14T13:33:23.954Z,24.96
2019-01-14T13:35:31.389Z,24.99
2019-01-14T13:37:46.608Z,25.01
2019-01-14T13:39:57.913Z,25.01
2019-01-14T13:42:05.589Z,25.01
2019-01-14T13:44:13.669Z,25.04
2019-01-14T13:46:26.188Z,25.04
2019-01-14T13:48:31.615Z,25.11
2019-01-14T13:50:45.042Z,25.12
2019-01-14T13:52:52.534Z,25.22
2019-01-14T13:54:59.792Z,25.31
2019-01-14T13:57:07.237Z,25.38
2019-01-14T13:59:23.412Z,25.28
2019-01-14T14:01:29.962Z,25.28
2019-01-14T14:04:11.448Z,25.22
2019-01-14T14:06:23.797Z,25.12
2019-01-14T14:08:49.158Z,24.93
2019-01-14T14:14:10.203Z,24.72
2019-01-14T14:16:22.762Z,24.68
2019-01-14T14:24:28.334Z,24.62
2019-01-14T14:26:38.563Z,24.68
2019-01-14T14:28:53.359Z,24.85
2019-01-14T14:31:04.043Z,25.04
2019-01-14T14:33:23.995Z,25.23
2019-01-14T14:35:42.858Z,25.38
2019-01-14T14:38:00.633Z,25.55
2019-01-14T14:40:32.288Z,25.67
2019-01-14T14:42:56.772Z,25.68
2019-01-14T14:45:15.396Z,25.50
2019-01-14T14:47:24.190Z,25.27
2019-01-14T14:49:37.769Z,25.09
2019-01-14T14:51:49.822Z,24.96
2019-01-14T14:54:03.678Z,24.89
2019-01-14T14:56:27.759Z,24.75
2019-01-14T14:58:39.018Z,24.70
2019-01-14T15:00:48.414Z,24.60
2019-01-14T15:03:04.338Z,24.55
2019-01-14T15:05:17.137Z,24.67
2019-01-14T15:07:42.262Z,24.79
2019-01-14T15:09:59.770Z,24.87
2019-01-14T15:12:14.506Z,24.95
2019-01-14T15:14:28.668Z,25.02
2019-01-14T15:16:35.900Z,25.13
2019-01-14T15:18:48.179Z,25.13
2019-01-14T15:20:59.958Z,25.03
2019-01-14T15:23:12.799Z,24.97
2019-01-14T15:25:26.885Z,24.87
2019-01-14T15:27:43.933Z,24.77
2019-01-14T15:29:57.086Z,24.74
2019-01-14T15:32:08.347Z,24.68
2019-01-14T15:34:22.638Z,24.58
2019-01-14T15:36:32.213Z,24.57
2019-01-14T15:38:39.460Z,24.47
2019-01-14T15:40:46.888Z,24.41
2019-01-14T15:43:05.963Z,24.41
2019-01-14T15:45:20.312Z,24.36
2019-01-14T15:47:28.871Z,24.30
2019-01-14T15:49:44.349Z,24.25
2019-01-14T15:51:55.434Z,24.25
2019-01-14T15:54:14.644Z,24.34
2019-01-14T15:56:29.067Z,24.44
2019-01-14T15:58:43.073Z,24.59
2019-01-14T16:00:57.968Z,24.73
2019-01-14T16:03:08.407Z,24.80
2019-01-14T16:05:22.571Z,24.86
2019-01-14T16:07:30.267Z,24.98
2019-01-14T16:09:43.121Z,25.10
2019-01-14T16:12:06.575Z,25.13
2019-01-14T16:14:34.294Z,25.02
2019-01-14T16:16:37.264Z,25.01
2019-01-14T16:18:52.544Z,24.88
2019-01-14T16:20:59.748Z,24.56
2019-01-14T16:23:37.107Z,24.75
2019-01-14T16:26:06.321Z,24.70
2019-01-14T16:28:22.368Z,24.58
2019-01-14T16:30:35.890Z,24.56
2019-01-14T16:32:55.529Z,24.54
2019-01-14T16:35:05.821Z,24.52
2019-01-14T16:37:17.057Z,24.45
2019-01-14T16:39:27.826Z,24.42
2019-01-14T16:41:40.617Z,24.35
2019-01-14T16:43:57.485Z,24.30
2019-01-14T16:46:10.672Z,24.37
2019-01-14T16:48:18.284Z,24.42
2019-01-14T16:50:32.819Z,24.52
2019-01-14T16:52:46.237Z,24.68
2019-01-14T16:55:03.011Z,24.84
2019-01-14T16:57:10.442Z,24.96
2019-01-14T16:59:32.450Z,25.05
2019-01-14T17:01:45.789Z,25.12
2019-01-14T17:04:00.633Z,25.06
2019-01-14T17:06:14.931Z,25.01
2019-01-14T17:08:33.240Z,24.96
2019-01-14T17:10:48.317Z,24.85
2019-01-14T17:13:04.383Z,24.78
2019-01-14T17:15:21.861Z,24.70
2019-01-14T17:17:29.328Z,24.64
2019-01-14T17:19:46.505Z,24.59
2019-01-14T17:21:58.093Z,24.56
2019-01-14T17:24:13.307Z,24.52
2019-01-14T17:26:25.750Z,24.50
2019-01-14T17:28:41.409Z,24.61
2019-01-14T17:30:58.625Z,24.75
2019-01-14T17:36:31.410Z,25.06
2019-01-14T17:38:44.813Z,25.14
2019-01-14T17:40:55.114Z,25.13
2019-01-14T17:43:09.690Z,25.05
2019-01-14T17:45:37.993Z,24.98
2019-01-14T17:48:02.566Z,24.95
2019-01-14T17:50:16.321Z,24.91
2019-01-14T17:52:46.656Z,24.80
2019-01-14T17:54:57.476Z,24.72
2019-01-14T17:57:05.260Z,24.72
2019-01-14T17:59:20.388Z,24.64
2019-01-14T18:01:35.202Z,24.57
2019-01-14T18:03:48.009Z,24.56
2019-01-14T18:05:58.843Z,24.53
2019-01-14T18:08:09.112Z,24.47
2019-01-14T18:10:18.877Z,24.44
2019-01-14T18:12:29.412Z,24.42
2019-01-14T18:14:45.075Z,24.46
2019-01-14T18:16:54.462Z,24.65
2019-01-14T18:19:05.083Z,24.82
2019-01-14T18:21:18.179Z,24.97
2019-01-14T18:23:28.819Z,25.02
2019-01-14T18:25:41.464Z,25.10
2019-01-14T18:27:53.947Z,25.17
2019-01-14T18:30:36.261Z,25.00
2019-01-14T18:33:00.181Z,24.82
2019-01-14T18:35:07.939Z,24.66
2019-01-14T18:37:15.577Z,24.58
2019-01-14T18:39:23.074Z,24.55
2019-01-14T18:41:30.517Z,24.52
2019-01-14T18:43:38.490Z,24.53
2019-01-14T18:45:45.906Z,24.45
2019-01-14T18:47:53.651Z,24.45
2019-01-14T18:50:01.013Z,24.53
2019-01-14T18:52:08.217Z,24.66
2019-01-14T18:54:16.080Z,24.82
2019-01-14T18:56:25.174Z,24.96
2019-01-14T18:58:37.096Z,24.94
2019-01-14T19:00:44.220Z,25.11
2019-01-14T19:02:51.772Z,25.19
2019-01-14T19:04:59.265Z,25.33
2019-01-14T19:07:06.650Z,25.40
2019-01-14T19:09:36.361Z,25.53
2019-01-14T19:11:59.591Z,25.55
2019-01-14T19:14:06.333Z,25.67
2019-01-14T19:16:16.403Z,25.70
2019-01-14T19:18:25.456Z,25.74
2019-01-14T19:20:33.692Z,25.73
2019-01-14T19:22:59.494Z,25.69
2019-01-14T19:25:15.138Z,25.56
2019-01-14T19:27:28.984Z,25.48
2019-01-14T19:29:45.265Z,25.31
2019-01-14T19:32:15.848Z,25.21
2019-01-14T19:34:34.195Z,25.12
2019-01-14T19:36:41.729Z,25.06
2019-01-14T19:39:02.700Z,25.01
2019-01-14T19:41:25.734Z,25.06
2019-01-14T19:43:45.118Z,25.18
2019-01-14T19:46:01.699Z,25.28
2019-01-14T19:48:15.015Z,25.41
2019-01-14T19:50:30.073Z,25.47
2019-01-14T19:52:46.844Z,25.52
2019-01-14T19:54:59.545Z,25.56
2019-01-14T19:57:06.996Z,25.51
2019-01-14T19:59:20.687Z,25.41
2019-01-14T20:01:36.984Z,25.35
2019-01-14T20:03:51.083Z,25.29
2019-01-14T20:06:04.712Z,25.24
2019-01-14T20:08:30.708Z,25.21
2019-01-14T20:13:20.782Z,25.09
2019-01-14T20:15:32.779Z,25.14
2019-01-14T20:17:42.136Z,25.32
2019-01-14T20:20:00.084Z,25.40
2019-01-14T20:22:14.914Z,25.52
2019-01-14T20:24:20.838Z,25.56
2019-01-14T20:26:33.936Z,25.55
2019-01-14T20:28:46.995Z,25.50
2019-01-14T20:31:00.158Z,25.40
2019-01-14T20:33:07.292Z,25.33
2019-01-14T20:35:18.417Z,25.18
2019-01-14T20:37:26.265Z,25.11
2019-01-14T20:39:38.345Z,25.04
2019-01-14T20:41:49.121Z,25.02
2019-01-14T20:44:05.161Z,25.01
2019-01-14T20:46:09.470Z,24.91
